createdAt,value
2018-12-07T00:01:51.929Z,100505.80
2018-12-07T00:04:18.063Z,100509.40
2018-12-07T00:06:44.217Z,100507.08
2018-12-07T00:09:10.364Z,100501.86
2018-12-07T00:11:36.495Z,100496.95
2018-12-07T00:14:02.751Z,100492.28
2018-12-07T00:16:28.896Z,100496.31
2018-12-07T00:18:55.003Z,100491.48
2018-12-07T00:21:21.167Z,100496.70
2018-12-07T00:23:47.347Z,100505.84
2018-12-07T00:26:13.486Z,100502.53
2018-12-07T00:28:39.609Z,100507.63
2018-12-07T00:31:05.741Z,100508.91
2018-12-07T00:33:31.850Z,100514.41
2018-12-07T00:35:57.966Z,100506.36
2018-12-07T00:38:24.092Z,100504.68
2018-12-07T00:40:50.219Z,100512.69
2018-12-07T00:43:16.335Z,100512.97
2018-12-07T00:45:42.463Z,100503.31
2018-12-07T00:48:08.587Z,100506.30
2018-12-07T00:50:34.756Z,100509.20
2018-12-07T00:53:00.916Z,100507.92
2018-12-07T00:55:35.256Z,100507.05
2018-12-07T00:58:01.440Z,100502.53
2018-12-07T01:00:27.598Z,100501.53
2018-12-07T01:02:53.727Z,100504.31
2018-12-07T01:05:19.863Z,100500.63
2018-12-07T01:07:46.067Z,100501.30
2018-12-07T01:10:12.179Z,100507.02
2018-12-07T01:12:38.306Z,100498.42
2018-12-07T01:15:04.611Z,100493.46
2018-12-07T01:17:30.745Z,100494.16
2018-12-07T01:19:56.877Z,100485.55
2018-12-07T01:22:23.039Z,100479.66
2018-12-07T01:24:49.163Z,100478.44
2018-12-07T01:27:15.655Z,100483.84
2018-12-07T01:29:41.763Z,100479.41
2018-12-07T01:32:07.875Z,100473.49
2018-12-07T01:34:34.007Z,100468.79
2018-12-07T01:37:00.115Z,100473.17
2018-12-07T01:39:26.244Z,100468.79
2018-12-07T01:41:52.376Z,100465.32
2018-12-07T01:44:18.549Z,100463.78
2018-12-07T01:46:44.699Z,100474.37
2018-12-07T01:49:10.832Z,100471.78
2018-12-07T01:51:36.962Z,100463.04
2018-12-07T01:54:03.126Z,100460.15
2018-12-07T01:56:29.242Z,100459.09
2018-12-07T01:58:55.384Z,100456.02
2018-12-07T02:01:21.546Z,100456.86
2018-12-07T02:03:47.786Z,100463.23
2018-12-07T02:06:13.951Z,100455.88
2018-12-07T02:08:40.079Z,100459.57
2018-12-07T02:11:06.195Z,100459.41
2018-12-07T02:13:32.370Z,100450.56
2018-12-07T02:15:58.495Z,100449.97
2018-12-07T02:18:24.614Z,100446.78
2018-12-07T02:20:50.749Z,100442.48
2018-12-07T02:23:16.907Z,100445.16
2018-12-07T02:25:43.035Z,100438.16
2018-12-07T02:28:09.168Z,100439.20
2018-12-07T02:30:35.322Z,100437.21
2018-12-07T02:33:01.434Z,100441.36
2018-12-07T02:35:27.612Z,100426.66
2018-12-07T02:37:53.738Z,100430.25
2018-12-07T02:40:19.948Z,100428.25
2018-12-07T02:42:46.109Z,100417.61
2018-12-07T02:45:12.243Z,100413.66
2018-12-07T02:47:38.355Z,100414.11
2018-12-07T02:50:04.619Z,100412.27
2018-12-07T02:52:30.743Z,100409.72
2018-12-07T02:54:56.863Z,100408.50
2018-12-07T02:57:22.987Z,100393.02
2018-12-07T02:59:49.103Z,100403.63
2018-12-07T03:02:15.261Z,100395.16
2018-12-07T03:04:41.382Z,100385.30
2018-12-07T03:07:07.511Z,100384.59
2018-12-07T03:09:33.642Z,100383.13
2018-12-07T03:11:59.751Z,100393.55
2018-12-07T03:14:25.920Z,100384.72
2018-12-07T03:16:52.051Z,100379.50
2018-12-07T03:19:18.504Z,100373.08
2018-12-07T03:21:44.620Z,100373.08
2018-12-07T03:24:10.763Z,100365.36
2018-12-07T03:26:36.949Z,100368.58
2018-12-07T03:29:03.094Z,100350.08
2018-12-07T03:31:29.208Z,100345.94
2018-12-07T03:33:55.347Z,100342.19
2018-12-07T03:36:21.475Z,100337.38
2018-12-07T03:38:47.586Z,100338.37
2018-12-07T03:41:13.735Z,100337.75
2018-12-07T03:43:39.863Z,100334.06
2018-12-07T03:46:05.994Z,100332.46
2018-12-07T03:48:32.125Z,100327.75
2018-12-07T03:50:58.262Z,100320.20
2018-12-07T03:53:24.377Z,100319.59
2018-12-07T03:55:50.495Z,100316.59
2018-12-07T03:58:16.673Z,100314.51
2018-12-07T04:00:42.791Z,100309.73
2018-12-07T04:03:08.903Z,100315.38
2018-12-07T04:05:35.132Z,100307.46
2018-12-07T04:08:01.263Z,100308.55
2018-12-07T04:10:27.396Z,100305.84
2018-12-07T04:12:53.523Z,100300.59
2018-12-07T04:15:19.761Z,100302.97
2018-12-07T04:17:46.024Z,100303.44
2018-12-07T04:20:12.279Z,100301.91
2018-12-07T04:22:38.698Z,100298.13
2018-12-07T04:25:05.046Z,100293.66
2018-12-07T04:27:31.202Z,100299.34
2018-12-07T04:30:09.519Z,100299.27
2018-12-07T04:32:35.638Z,100281.22
2018-12-07T04:35:01.787Z,100285.36
2018-12-07T04:37:27.911Z,100287.39
2018-12-07T04:39:54.124Z,100277.99
2018-12-07T04:42:20.247Z,100280.34
2018-12-07T04:44:46.351Z,100270.59
2018-12-07T04:47:12.469Z,100269.86
2018-12-07T04:49:38.613Z,100268.22
2018-12-07T04:52:04.741Z,100268.00
2018-12-07T04:54:30.999Z,100262.61
2018-12-07T04:56:57.122Z,100260.07
2018-12-07T04:59:23.239Z,100254.16
2018-12-07T05:01:49.355Z,100242.04
2018-12-07T05:04:15.497Z,100233.74
2018-12-07T05:06:41.599Z,100233.69
2018-12-07T05:09:07.725Z,100237.84
2018-12-07T05:11:33.864Z,100225.77
2018-12-07T05:14:00.014Z,100226.35
2018-12-07T05:16:26.120Z,100220.58
2018-12-07T05:18:52.956Z,100230.75
2018-12-07T05:21:19.087Z,100222.27
2018-12-07T05:23:45.219Z,100224.78
2018-12-07T05:26:11.368Z,100238.62
2018-12-07T05:28:37.489Z,100250.55
2018-12-07T05:31:03.614Z,100232.48
2018-12-07T05:33:30.288Z,100225.36
2018-12-07T05:35:56.408Z,100232.30
2018-12-07T05:38:22.547Z,100227.53
2018-12-07T05:40:48.664Z,100221.88
2018-12-07T05:43:14.783Z,100218.10
2018-12-07T05:45:40.938Z,100213.64
2018-12-07T05:48:07.083Z,100212.98
2018-12-07T05:50:33.216Z,100212.20
2018-12-07T05:52:59.379Z,100204.67
2018-12-07T05:55:25.523Z,100204.80
2018-12-07T05:57:51.631Z,100201.04
2018-12-07T06:00:17.808Z,100196.98
2018-12-07T06:02:44.033Z,100200.15
2018-12-07T06:05:10.186Z,100192.11
2018-12-07T06:07:36.311Z,100186.74
2018-12-07T06:10:03.199Z,100188.16
2018-12-07T06:12:29.322Z,100184.42
2018-12-07T06:14:55.461Z,100186.70
2018-12-07T06:17:21.589Z,100174.98
2018-12-07T06:19:47.723Z,100170.27
2018-12-07T06:22:13.921Z,100174.64
2018-12-07T06:24:40.066Z,100170.14
2018-12-07T06:27:06.255Z,100168.98
2018-12-07T06:29:32.411Z,100165.70
2018-12-07T06:31:58.518Z,100158.06
2018-12-07T06:34:24.695Z,100151.33
2018-12-07T06:36:50.820Z,100165.51
2018-12-07T06:39:16.963Z,100163.09
2018-12-07T06:41:43.105Z,100159.88
2018-12-07T06:44:09.243Z,100150.98
2018-12-07T06:46:35.420Z,100151.80
2018-12-07T06:49:07.446Z,100151.86
2018-12-07T06:51:33.612Z,100151.08
2018-12-07T06:53:59.852Z,100147.32
2018-12-07T06:56:25.979Z,100143.98
2018-12-07T06:58:52.100Z,100141.05
2018-12-07T07:01:18.239Z,100138.11
2018-12-07T07:03:44.403Z,100135.67
2018-12-07T07:06:10.568Z,100136.59
2018-12-07T07:08:36.720Z,100141.84
2018-12-07T07:11:02.879Z,100139.82
2018-12-07T07:13:29.021Z,100137.75
2018-12-07T07:15:55.215Z,100133.34
2018-12-07T07:18:21.462Z,100136.47
2018-12-07T07:20:47.648Z,100137.39
2018-12-07T07:23:13.796Z,100131.87
2018-12-07T07:25:39.969Z,100131.13
2018-12-07T07:28:06.143Z,100130.62
2018-12-07T07:30:32.352Z,100123.41
2018-12-07T07:32:58.555Z,100124.77
2018-12-07T07:35:24.687Z,100123.53
2018-12-07T07:37:50.847Z,100122.24
2018-12-07T07:40:16.999Z,100122.25
2018-12-07T07:42:43.163Z,100120.50
2018-12-07T07:45:09.311Z,100117.97
2018-12-07T07:47:35.450Z,100112.48
2018-12-07T07:50:01.819Z,100113.36
2018-12-07T07:52:27.967Z,100108.81
2018-12-07T07:54:54.103Z,100114.53
2018-12-07T07:57:20.401Z,100097.00
2018-12-07T07:59:46.551Z,100090.08
2018-12-07T08:02:12.720Z,100097.87
2018-12-07T08:04:38.852Z,100086.33
2018-12-07T08:07:05.011Z,100094.16
2018-12-07T08:09:31.139Z,100085.63
2018-12-07T08:11:57.302Z,100084.85
2018-12-07T08:14:23.451Z,100081.47
2018-12-07T08:16:49.644Z,100085.78
2018-12-07T08:19:15.778Z,100092.27
2018-12-07T08:21:41.935Z,100068.17
2018-12-07T08:24:08.108Z,100080.02
2018-12-07T08:26:34.255Z,100071.38
2018-12-07T08:29:00.388Z,100077.86
2018-12-07T08:31:26.563Z,100071.02
2018-12-07T08:33:52.710Z,100081.00
2018-12-07T08:36:18.947Z,100072.45
2018-12-07T08:38:45.106Z,100079.34
2018-12-07T08:41:11.262Z,100071.19
2018-12-07T08:43:37.476Z,100067.34
2018-12-07T08:46:03.722Z,100063.98
2018-12-07T08:48:29.904Z,100057.08
2018-12-07T08:50:56.032Z,100069.61
2018-12-07T08:53:22.219Z,100064.08
2018-12-07T08:55:48.404Z,100067.63
2018-12-07T08:58:14.571Z,100060.41
2018-12-07T09:00:40.695Z,100049.67
2018-12-07T09:03:06.833Z,100063.03
2018-12-07T09:05:32.959Z,100058.34
2018-12-07T09:07:59.123Z,100049.34
2018-12-07T09:10:25.291Z,100045.47
2018-12-07T09:12:51.563Z,100042.89
2018-12-07T09:15:17.711Z,100040.78
2018-12-07T09:17:43.841Z,100030.07
2018-12-07T09:20:28.528Z,100035.66
2018-12-07T09:22:54.685Z,100031.83
2018-12-07T09:25:20.836Z,100021.99
2018-12-07T09:27:46.962Z,100024.61
2018-12-07T09:30:13.088Z,100021.59
2018-12-07T09:32:39.195Z,100019.45
2018-12-07T09:35:05.379Z,100016.02
2018-12-07T09:37:31.503Z,100006.99
2018-12-07T09:39:57.665Z,100016.49
2018-12-07T09:42:23.804Z,100017.35
2018-12-07T09:44:49.943Z,100017.81
2018-12-07T09:47:16.065Z,100005.78
2018-12-07T09:49:42.211Z,100009.63
2018-12-07T09:52:08.326Z,100005.33
2018-12-07T09:54:34.500Z,100006.65
2018-12-07T09:57:00.651Z,100002.78
2018-12-07T09:59:26.804Z,100006.27
2018-12-07T10:01:52.919Z,99998.95
2018-12-07T10:04:19.048Z,99986.45
2018-12-07T10:06:45.199Z,99991.62
2018-12-07T10:09:11.363Z,99995.09
2018-12-07T10:11:37.502Z,99991.20
2018-12-07T10:14:03.766Z,99992.94
2018-12-07T10:16:29.911Z,99977.41
2018-12-07T10:18:56.559Z,99979.59
2018-12-07T10:21:22.715Z,99979.16
2018-12-07T10:23:48.865Z,99970.98
2018-12-07T10:26:15.041Z,99965.81
2018-12-07T10:28:41.240Z,99959.80
2018-12-07T10:31:07.475Z,99964.52
2018-12-07T10:33:33.621Z,99957.20
2018-12-07T10:35:59.794Z,99953.31
2018-12-07T10:38:25.948Z,99946.86
2018-12-07T10:40:52.114Z,99947.71
2018-12-07T10:43:18.257Z,99941.69
2018-12-07T10:45:44.395Z,99945.55
2018-12-07T10:48:10.556Z,99942.53
2018-12-07T10:50:36.691Z,99944.28
2018-12-07T10:53:02.810Z,99936.08
2018-12-07T10:55:28.955Z,99927.02
2018-12-07T10:57:55.064Z,99919.25
2018-12-07T11:00:27.129Z,99917.09
2018-12-07T11:06:04.413Z,99915.78
2018-12-07T11:08:36.548Z,99917.08
2018-12-07T11:11:08.867Z,99917.50
2018-12-07T11:13:37.051Z,99912.31
2018-12-07T11:16:09.303Z,99911.02
2018-12-07T11:18:41.597Z,99911.00
2018-12-07T11:21:14.092Z,99905.81
2018-12-07T11:23:46.180Z,99902.37
2018-12-07T11:29:24.116Z,99904.08
2018-12-07T11:31:56.383Z,99896.31
2018-12-07T11:34:24.571Z,99894.55
2018-12-07T11:36:50.711Z,99886.37
2018-12-07T11:39:16.855Z,99889.38
2018-12-07T11:41:43.163Z,99885.91
2018-12-07T11:44:09.296Z,99882.91
2018-12-07T11:46:35.431Z,99873.80
2018-12-07T11:49:01.575Z,99869.91
2018-12-07T11:51:27.719Z,99873.78
2018-12-07T11:53:53.866Z,99860.81
2018-12-07T11:56:20.012Z,99867.25
2018-12-07T11:58:46.159Z,99864.66
2018-12-07T12:01:12.292Z,99867.66
2018-12-07T12:03:38.427Z,99863.30
2018-12-07T12:06:04.640Z,99869.75
2018-12-07T12:08:30.785Z,99860.67
2018-12-07T12:10:56.919Z,99858.48
2018-12-07T12:13:23.051Z,99858.04
2018-12-07T12:15:49.192Z,99848.94
2018-12-07T12:18:15.333Z,99837.72
2018-12-07T12:20:41.487Z,99839.83
2018-12-07T12:23:07.656Z,99834.60
2018-12-07T12:25:33.832Z,99834.14
2018-12-07T12:28:00.058Z,99825.05
2018-12-07T12:30:26.253Z,99823.72
2018-12-07T12:32:52.395Z,99817.24
2018-12-07T12:35:18.555Z,99810.73
2018-12-07T12:37:44.671Z,99807.22
2018-12-07T12:40:10.824Z,99802.04
2018-12-07T12:42:36.971Z,99805.47
2018-12-07T12:45:03.763Z,99803.71
2018-12-07T12:47:29.911Z,99806.73
2018-12-07T12:49:56.043Z,99805.84
2018-12-07T12:52:22.171Z,99802.38
2018-12-07T12:54:48.302Z,99792.84
2018-12-07T12:57:14.443Z,99792.41
2018-12-07T12:59:40.591Z,99794.08
2018-12-07T13:02:06.768Z,99791.89
2018-12-07T13:04:33.012Z,99786.23
2018-12-07T13:06:59.147Z,99784.47
2018-12-07T13:09:25.277Z,99781.02
2018-12-07T13:11:51.460Z,99785.73
2018-12-07T13:14:17.656Z,99661.52
2018-12-07T13:16:43.797Z,99781.70
2018-12-07T13:19:09.957Z,99785.96
2018-12-07T13:21:36.136Z,99781.16
2018-12-07T13:24:02.322Z,99777.23
2018-12-07T13:26:28.459Z,99778.49
2018-12-07T13:28:54.693Z,99769.80
2018-12-07T13:31:20.951Z,99760.64
2018-12-07T13:33:47.123Z,99763.16
2018-12-07T13:36:13.299Z,99761.77
2018-12-07T13:38:39.407Z,99752.60
2018-12-07T13:41:05.566Z,99754.28
2018-12-07T13:43:31.864Z,99752.95
2018-12-07T13:45:58.062Z,99743.77
2018-12-07T13:48:24.224Z,99744.10
2018-12-07T13:50:50.487Z,99740.13
2018-12-07T13:53:16.710Z,99736.89
2018-12-07T13:55:42.933Z,99728.46
2018-12-07T13:58:09.241Z,99715.80
2018-12-07T14:00:35.558Z,99722.17
2018-12-07T14:03:01.762Z,99717.69
2018-12-07T14:05:32.261Z,99712.58
2018-12-07T14:07:56.428Z,99715.50
2018-12-07T14:10:22.691Z,99710.28
2018-12-07T14:12:48.974Z,99710.09
2018-12-07T14:15:15.346Z,99712.16
2018-12-07T14:17:41.633Z,99698.72
2018-12-07T14:20:08.096Z,99718.77
2018-12-07T14:22:34.456Z,99716.42
2018-12-07T14:25:00.669Z,99712.63
2018-12-07T14:27:27.177Z,99709.02
2018-12-07T14:29:53.429Z,99696.36
2018-12-07T14:32:19.642Z,99702.36
2018-12-07T14:34:46.031Z,99692.25
2018-12-07T14:37:12.306Z,99690.72
2018-12-07T14:39:38.495Z,99679.80
2018-12-07T14:42:04.907Z,99673.52
2018-12-07T14:44:31.328Z,99669.61
2018-12-07T14:46:57.568Z,99660.81
2018-12-07T14:49:23.898Z,99658.06
2018-12-07T14:51:50.176Z,99655.38
2018-12-07T14:54:16.566Z,99657.06
2018-12-07T14:56:42.681Z,99656.55
2018-12-07T14:59:09.120Z,99651.75
2018-12-07T15:01:35.427Z,99649.06
2018-12-07T15:04:01.585Z,99646.46
2018-12-07T15:06:27.823Z,99641.69
2018-12-07T15:08:54.131Z,99645.08
2018-12-07T15:11:20.532Z,99637.97
2018-12-07T15:13:46.979Z,99629.27
2018-12-07T15:16:13.508Z,99634.87
2018-12-07T15:18:40.062Z,99631.73
2018-12-07T15:21:06.553Z,99625.14
2018-12-07T15:23:32.880Z,99623.48
2018-12-07T15:25:59.160Z,99626.42
2018-12-07T15:28:25.381Z,99622.02
2018-12-07T15:30:51.823Z,99619.39
2018-12-07T15:33:18.122Z,99621.50
2018-12-07T15:35:44.509Z,99615.81
2018-12-07T15:38:10.882Z,99612.70
2018-12-07T15:40:37.208Z,99619.56
2018-12-07T15:43:03.698Z,99622.17
2018-12-07T15:45:30.184Z,99617.34
2018-12-07T15:47:56.656Z,99615.21
2018-12-07T15:50:25.268Z,99607.39
2018-12-07T15:52:51.177Z,99600.81
2018-12-07T15:55:17.697Z,99599.00
2018-12-07T15:57:43.979Z,99585.14
2018-12-07T16:00:10.132Z,99588.52
2018-12-07T16:02:36.381Z,99585.41
2018-12-07T16:05:03.149Z,99583.67
2018-12-07T16:07:29.289Z,99576.31
2018-12-07T16:09:55.501Z,99575.01
2018-12-07T16:12:21.875Z,99582.39
2018-12-07T16:14:48.159Z,99577.62
2018-12-07T16:17:14.743Z,99584.45
2018-12-07T16:19:40.977Z,99592.71
2018-12-07T16:22:07.572Z,99588.80
2018-12-07T16:24:33.810Z,99586.64
2018-12-07T16:27:00.015Z,99580.53
2018-12-07T16:29:26.243Z,99577.48
2018-12-07T16:31:52.643Z,99580.53
2018-12-07T16:34:19.096Z,99570.48
2018-12-07T16:36:45.418Z,99572.20
2018-12-07T16:39:11.709Z,99576.53
2018-12-07T16:41:38.288Z,99570.02
2018-12-07T16:44:04.623Z,99574.34
2018-12-07T16:46:30.829Z,99576.89
2018-12-07T16:48:56.979Z,99576.48
2018-12-07T16:51:23.263Z,99579.09
2018-12-07T16:53:49.670Z,99572.98
2018-12-07T16:56:15.968Z,99569.93
2018-12-07T16:58:42.269Z,99571.23
2018-12-07T17:01:08.478Z,99567.77
2018-12-07T17:03:34.885Z,99570.34
2018-12-07T17:06:01.290Z,99565.52
2018-12-07T17:08:27.775Z,99558.61
2018-12-07T17:10:54.054Z,99559.41
2018-12-07T17:13:20.267Z,99562.02
2018-12-07T17:15:46.562Z,99542.03
2018-12-07T17:18:12.814Z,99545.86
2018-12-07T17:20:39.129Z,99536.34
2018-12-07T17:23:05.720Z,99535.91
2018-12-07T17:25:31.931Z,99531.07
2018-12-07T17:27:58.375Z,99524.16
2018-12-07T17:30:24.693Z,99524.55
2018-12-07T17:32:51.139Z,99528.46
2018-12-07T17:35:17.312Z,99524.55
2018-12-07T17:37:43.520Z,99526.30
2018-12-07T17:40:09.931Z,99525.85
2018-12-07T17:42:36.427Z,99519.75
2018-12-07T17:45:03.171Z,99520.19
2018-12-07T17:47:29.355Z,99516.34
2018-12-07T17:49:55.703Z,99516.72
2018-12-07T17:52:22.073Z,99511.56
2018-12-07T17:54:48.509Z,99509.31
2018-12-07T17:57:14.838Z,99512.36
2018-12-07T17:59:41.103Z,99508.04
2018-12-07T18:02:07.347Z,99494.16
2018-12-07T18:04:33.464Z,99492.38
2018-12-07T18:06:59.602Z,99496.30
2018-12-07T18:09:25.909Z,99501.52
2018-12-07T18:11:52.116Z,99495.86
2018-12-07T18:14:18.432Z,99498.02
2018-12-07T18:16:44.663Z,99493.66
2018-12-07T18:19:11.004Z,99485.84
2018-12-07T18:21:37.779Z,99494.91
2018-12-07T18:24:04.385Z,99494.52
2018-12-07T18:26:30.704Z,99491.05
2018-12-07T18:28:57.041Z,99486.28
2018-12-07T18:31:23.382Z,99488.89
2018-12-07T18:33:49.621Z,99485.39
2018-12-07T18:36:16.072Z,99475.40
2018-12-07T18:38:42.612Z,99472.34
2018-12-07T18:41:08.879Z,99483.16
2018-12-07T18:43:35.184Z,99477.95
2018-12-07T18:46:01.414Z,99473.20
2018-12-07T18:48:28.067Z,99477.13
2018-12-07T18:50:54.557Z,99472.34
2018-12-07T18:53:20.810Z,99469.33
2018-12-07T18:55:47.057Z,99482.37
2018-12-07T18:58:13.443Z,99471.08
2018-12-07T19:00:39.919Z,99471.91
2018-12-07T19:03:06.711Z,99471.42
2018-12-07T19:05:33.280Z,99467.93
2018-12-07T19:07:59.770Z,99460.99
2018-12-07T19:10:26.133Z,99461.91
2018-12-07T19:12:52.482Z,99458.44
2018-12-07T19:15:18.780Z,99464.02
2018-12-07T19:17:44.949Z,99454.47
2018-12-07T19:20:11.554Z,99453.58
2018-12-07T19:22:37.823Z,99451.42
2018-12-07T19:25:05.429Z,99452.34
2018-12-07T19:27:31.765Z,99447.06
2018-12-07T19:29:57.983Z,99446.20
2018-12-07T19:32:24.175Z,99444.89
2018-12-07T19:34:50.488Z,99445.34
2018-12-07T19:37:16.861Z,99427.45
2018-12-07T19:39:43.043Z,99444.89
2018-12-07T19:42:09.387Z,99442.73
2018-12-07T19:44:35.807Z,99409.95
2018-12-07T19:47:02.134Z,99451.51
2018-12-07T19:49:28.662Z,99456.69
2018-12-07T19:51:54.896Z,99447.16
2018-12-07T19:54:21.280Z,99443.66
2018-12-07T19:56:47.560Z,99445.34
2018-12-07T19:59:13.765Z,99442.80
2018-12-07T20:01:40.187Z,99446.27
2018-12-07T20:04:06.423Z,99444.55
2018-12-07T20:06:32.833Z,99445.84
2018-12-07T20:08:59.397Z,99440.62
2018-12-07T20:11:25.820Z,99440.62
2018-12-07T20:13:52.365Z,99438.91
2018-12-07T20:16:18.662Z,99438.53
2018-12-07T20:18:44.928Z,99430.64
2018-12-07T20:21:11.268Z,99433.70
2018-12-07T20:23:37.856Z,99431.95
2018-12-07T20:26:04.110Z,99426.79
2018-12-07T20:28:30.567Z,99423.32
2018-12-07T20:30:56.882Z,99420.27
2018-12-07T20:33:23.328Z,99409.84
2018-12-07T20:35:49.743Z,99410.70
2018-12-07T20:38:15.914Z,99405.50
2018-12-07T20:40:42.238Z,99407.25
2018-12-07T20:43:08.815Z,99408.11
2018-12-07T20:45:35.299Z,99402.48
2018-12-07T20:48:01.710Z,99404.65
2018-12-07T20:50:28.204Z,99379.48
2018-12-07T20:52:54.474Z,99403.79
2018-12-07T20:55:21.007Z,99399.87
2018-12-07T20:57:47.527Z,99377.13
2018-12-07T21:00:13.937Z,99388.14
2018-12-07T21:02:40.235Z,99394.22
2018-12-07T21:05:10.790Z,99388.14
2018-12-07T21:07:48.473Z,99390.75
2018-12-07T21:16:55.049Z,99380.41
2018-12-07T21:19:21.638Z,99376.11
2018-12-07T21:21:48.146Z,99373.50
2018-12-07T21:24:14.451Z,99377.80
2018-12-07T21:26:40.593Z,99381.71
2018-12-07T21:29:06.730Z,99385.18
2018-12-07T21:31:33.063Z,99380.41
2018-12-07T21:34:04.315Z,99371.72
2018-12-07T21:36:36.448Z,99361.77
2018-12-07T21:39:06.847Z,99358.75
2018-12-07T21:41:33.176Z,99365.69
2018-12-07T21:43:59.578Z,99361.77
2018-12-07T21:46:25.883Z,99363.08
2018-12-07T21:48:52.252Z,99365.20
2018-12-07T21:51:23.388Z,99369.98
2018-12-07T21:53:49.668Z,99363.96
2018-12-07T21:56:15.867Z,99362.22
2018-12-07T21:58:42.210Z,99357.80
2018-12-07T22:01:08.558Z,99358.66
2018-12-07T22:03:34.987Z,99356.55
2018-12-07T22:06:01.573Z,99348.73
2018-12-07T22:08:27.953Z,99339.63
2018-12-07T22:10:54.361Z,99340.48
2018-12-07T22:13:20.659Z,99342.66
2018-12-07T22:15:47.237Z,99341.34
2018-12-07T22:18:13.572Z,99338.74
2018-12-07T22:20:40.112Z,99340.48
2018-12-07T22:23:06.599Z,99337.44
2018-12-07T22:25:33.138Z,99332.77
2018-12-07T22:27:59.741Z,99335.38
2018-12-07T22:30:26.055Z,99328.78
2018-12-07T22:32:52.332Z,99325.29
2018-12-07T22:35:18.728Z,99331.84
2018-12-07T22:37:44.987Z,99332.70
2018-12-07T22:40:11.282Z,99330.53
2018-12-07T22:42:37.664Z,99324.94
2018-12-07T22:45:04.393Z,99332.77
2018-12-07T22:47:30.678Z,99326.62
2018-12-07T22:49:56.911Z,99326.14
2018-12-07T22:52:23.096Z,99319.66
2018-12-07T22:54:49.226Z,99317.97
2018-12-07T22:57:15.407Z,99311.45
2018-12-07T22:59:41.577Z,99316.19
2018-12-07T23:02:07.779Z,99311.45
2018-12-07T23:04:33.937Z,99302.36
2018-12-07T23:07:00.089Z,99305.38
2018-12-07T23:09:26.225Z,99309.73
2018-12-07T23:11:52.365Z,99306.27
2018-12-07T23:14:18.496Z,99307.64
2018-12-07T23:16:44.612Z,99307.64
2018-12-07T23:19:10.762Z,99303.66
2018-12-07T23:21:36.887Z,99297.66
2018-12-07T23:24:03.031Z,99300.70
2018-12-07T23:26:29.183Z,99297.20
2018-12-07T23:28:55.330Z,99296.28
2018-12-07T23:31:21.492Z,99287.60
2018-12-07T23:33:47.642Z,99288.46
2018-12-07T23:36:13.788Z,99277.72
2018-12-07T23:38:39.939Z,99275.58
2018-12-07T23:41:06.072Z,99277.27
2018-12-07T23:43:32.217Z,99272.50
2018-12-07T23:45:58.343Z,99279.88
2018-12-07T23:48:24.735Z,99277.78
2018-12-07T23:50:50.880Z,99283.44
2018-12-07T23:53:17.000Z,99285.50
2018-12-07T23:55:43.153Z,99277.23
2018-12-07T23:58:09.270Z,99266.05
